Tachibana Maru — 7JRC — position and weather

sailwx.info

Track history (hours):
 
Tides and Currents Weather Stations Pressure Air Temp Water Temp Dewpoint Dewpoint Depression Visibility Wind Speed Wind Dir Waves Ship Positions

Tachibana Maru

Last reported at 2017-Oct-23 05:09 UTC. Time now 2017-Oct-23 06:08 UTC.
Position N 35°39' E 139°46'.

Length 118 m; draft 5.1 m.

Type: Passenger vessel. MMSI: 431005338.

Date/timePositionNaut miles runAvg speedWind from/ knotsBaromVisibWave heightAir tempDewpointWater temp
2017-Oct-23 05:09N 35°39' E 139°46'1 4.2
2017-Oct-23 04:59N 35°38' E 139°46'510.4
2017-Oct-23 04:29N 35°34' E 139°49'3 6.1
2017-Oct-23 03:58N 35°31' E 139°51'0 0.0
2017-Oct-22 23:35N 35°31' E 139°51'0 0.0
2017-Oct-22 23:28N 35°31' E 139°51'0 0.1
2017-Oct-22 22:52N 35°31' E 139°51'0 0.1
2017-Oct-22 22:29N 35°31' E 139°51'0 0.0
2017-Oct-22 21:14N 35°31' E 139°51'0 0.1
2017-Oct-22 20:44N 35°31' E 139°51'0 0.2
2017-Oct-22 20:24N 35°31' E 139°51'0 0.1
2017-Oct-22 19:58N 35°31' E 139°51'0 0.0
2017-Oct-22 19:29N 35°31' E 139°51'0 0.0
2017-Oct-22 18:58N 35°31' E 139°51'0 0.0
2017-Oct-22 18:30N 35°31' E 139°51'0 0.0
2017-Oct-22 17:58N 35°31' E 139°51'0 0.0
2017-Oct-22 17:28N 35°31' E 139°51'0 0.0
2017-Oct-22 16:57N 35°31' E 139°51'0 0.0
2017-Oct-22 16:30N 35°31' E 139°51'0 0.1
2017-Oct-22 14:40N 35°31' E 139°51'0 0.0
2017-Oct-22 14:26N 35°31' E 139°51'0 0.0
2017-Oct-22 14:00N 35°31' E 139°51'0 0.0
2017-Oct-22 13:29N 35°31' E 139°51'0 0.0
2017-Oct-22 12:56N 35°31' E 139°51'0 0.0
2017-Oct-22 12:30N 35°31' E 139°51'0 0.0
2017-Oct-22 04:10N 35°31' E 139°51'0 0.0
2017-Oct-22 04:00N 35°31' E 139°51'0 0.0
2017-Oct-22 03:31N 35°31' E 139°51'0 0.4
2017-Oct-22 03:00N 35°31' E 139°51'2 5.0
2017-Oct-22 02:31N 35°34' E 139°50'611.9
2017-Oct-22 01:58N 35°39' E 139°46'0 0.0
2017-Oct-21 10:47N 35°39' E 139°46'2 6.9
2017-Oct-21 10:30N 35°37' E 139°46'816.2
2017-Oct-21 09:59N 35°31' E 139°52'816.7
2017-Oct-21 09:30N 35°24' E 139°46'612.4
2017-Oct-21 09:00N 35°18' E 139°44'612.6
2017-Oct-21 08:31N 35°12' E 139°47'1019.4
2017-Oct-21 08:01N 35°03' E 139°45'1018.6
2017-Oct-21 07:27N 34°53' E 139°39'1 0.0
2017-Oct-20 16:38N 34°53' E 139°40'320.5
2017-Oct-20 16:30N 34°56' E 139°41'1019.7
2017-Oct-20 16:01N 35°05' E 139°43'918.2
2017-Oct-20 15:30N 35°14' E 139°46'612.2
2017-Oct-20 15:00N 35°19' E 139°43'815.2
2017-Oct-20 14:30N 35°26' E 139°46'13 0.6
2017-Oct-19 16:53N 35°39' E 139°46'0 0.0
2017-Oct-19 16:29N 35°39' E 139°46'0 0.0
2017-Oct-19 15:56N 35°39' E 139°46'0 0.0
2017-Oct-19 15:29N 35°39' E 139°46'0 0.0
2017-Oct-19 14:50N 35°39' E 139°46'0 0.0
2017-Oct-19 14:29N 35°39' E 139°46'0 0.0
2017-Oct-19 12:05N 35°39' E 139°46'0 0.1
2017-Oct-19 11:59N 35°39' E 139°46'0 0.0
2017-Oct-19 11:29N 35°39' E 139°46'0 0.0
2017-Oct-19 10:47N 35°39' E 139°46'0 0.0
2017-Oct-19 04:59N 35°39' E 139°46'0 0.0
2017-Oct-19 04:00N 35°39' E 139°46'4 9.0
2017-Oct-19 03:30N 35°35' E 139°48'713.7
2017-Oct-19 03:00N 35°29' E 139°52'815.4
2017-Oct-19 02:30N 35°23' E 139°46'612.0
2017-Oct-19 02:01N 35°17' E 139°46'713.1
2017-Oct-19 01:30N 35°10' E 139°47'917.0
2017-Oct-19 01:00N 35°02' E 139°44'816.1
2017-Oct-19 00:30N 34°55' E 139°40'3 0.4
2017-Oct-18 16:54N 34°52' E 139°38'818.8
2017-Oct-18 16:30N 34°60' E 139°40'918.8
2017-Oct-18 16:00N 35°08' E 139°44'815.1
2017-Oct-18 15:30N 35°16' E 139°46'612.6
2017-Oct-18 15:01N 35°21' E 139°42'1414.2
2017-Oct-18 14:00N 35°35' E 139°48'5 1.8
2017-Oct-18 11:28N 35°39' E 139°46'612.1
2017-Oct-18 11:00N 35°34' E 139°49'714.7
2017-Oct-18 10:30N 35°27' E 139°49'713.9
2017-Oct-18 10:00N 35°21' E 139°45'611.7
2017-Oct-18 09:30N 35°15' E 139°47'816.5
2017-Oct-18 09:00N 35°07' E 139°46'1019.1
2017-Oct-18 08:30N 34°58' E 139°42'9 0.6
2017-Oct-17 16:56N 34°50' E 139°38'818.5
2017-Oct-17 16:30N 34°58' E 139°40'1018.7
2017-Oct-17 16:00N 35°07' E 139°43'816.5
2017-Oct-17 15:30N 35°15' E 139°46'611.8
2017-Oct-17 15:00N 35°20' E 139°43'714.9
2017-Oct-17 14:30N 35°27' E 139°45'815.4
2017-Oct-17 14:00N 35°34' E 139°49'6 0.6
2017-Oct-17 04:11N 35°39' E 139°46'1 4.0
2017-Oct-17 04:00N 35°38' E 139°46'611.4
2017-Oct-17 03:30N 35°34' E 139°50'612.5
2017-Oct-17 03:01N 35°28' E 139°50'713.7
2017-Oct-17 02:30N 35°22' E 139°45'611.8
2017-Oct-17 02:00N 35°16' E 139°46'714.7
2017-Oct-17 01:31N 35°09' E 139°47'918.2
2017-Oct-17 01:01N 35°00' E 139°42'816.2
2017-Oct-17 00:30N 34°53' E 139°40'1 0.1
2017-Oct-16 16:59N 34°52' E 139°40'816.8
2017-Oct-16 16:30N 35°00' E 139°42'816.4
2017-Oct-16 16:00N 35°08' E 139°44'715.0
2017-Oct-16 15:31N 35°15' E 139°46'713.3
2017-Oct-16 15:00N 35°21' E 139°42'1414.2
2017-Oct-16 14:00N 35°34' E 139°48'510.1
2017-Oct-16 13:30N 35°39' E 139°46'0 0.0
2017-Oct-16 13:00N 35°39' E 139°46'0 0.0
2017-Oct-16 12:30N 35°39' E 139°46'0 0.0
2017-Oct-16 11:33N 35°39' E 139°46'0 0.9
2017-Oct-16 11:30N 35°39' E 139°46'611.4
2017-Oct-16 11:00N 35°34' E 139°49'714.6
2017-Oct-16 10:30N 35°27' E 139°49'713.7
2017-Oct-16 10:00N 35°21' E 139°45'611.5
2017-Oct-16 09:30N 35°16' E 139°47'815.2
2017-Oct-16 09:00N 35°08' E 139°46'918.1
2017-Oct-16 08:30N 34°60' E 139°41'816.5
2017-Oct-16 08:00N 34°52' E 139°37'1 0.1
2017-Oct-15 16:42N 34°52' E 139°39'419.8
2017-Oct-15 16:30N 34°56' E 139°40'918.9
2017-Oct-15 16:00N 35°05' E 139°43'918.3
2017-Oct-15 15:30N 35°14' E 139°46'713.0
2017-Oct-15 15:00N 35°19' E 139°43'1515.5
2017-Oct-15 14:00N 35°34' E 139°49'6 2.1
2017-Oct-15 11:17N 35°39' E 139°46'2 8.9
2017-Oct-15 11:00N 35°37' E 139°46'917.3
2017-Oct-15 10:31N 35°30' E 139°52'816.7
2017-Oct-15 10:01N 35°23' E 139°46'612.2
2017-Oct-15 09:30N 35°17' E 139°46'713.5
2017-Oct-15 09:01N 35°10' E 139°46'1019.3
2017-Oct-15 08:30N 35°01' E 139°44'11 0.7
2017-Oct-14 16:48N 34°50' E 139°38'618.8
2017-Oct-14 16:30N 34°56' E 139°40'918.7
2017-Oct-14 16:00N 35°05' E 139°44'918.1
2017-Oct-14 15:30N 35°13' E 139°46'612.8
2017-Oct-14 15:00N 35°19' E 139°43'815.5
2017-Oct-14 14:31N 35°26' E 139°46'815.5
2017-Oct-14 14:00N 35°34' E 139°49'611.4
2017-Oct-14 13:28N 35°39' E 139°46'0 0.0
2017-Oct-14 12:50N 35°39' E 139°46'0 0.0
2017-Oct-14 12:29N 35°39' E 139°46'0 0.0
2017-Oct-14 11:24N 35°39' E 139°46'1 2.2
2017-Oct-14 10:59N 35°38' E 139°46'915.9
2017-Oct-14 10:24N 35°31' E 139°52'717.9
2017-Oct-14 10:01N 35°25' E 139°47'713.0
2017-Oct-14 09:30N 35°19' E 139°44'612.5
2017-Oct-14 09:00N 35°13' E 139°47'917.9
2017-Oct-14 08:30N 35°04' E 139°45'918.5
2017-Oct-14 08:00N 34°55' E 139°42'8 0.5
2017-Oct-13 16:56N 34°49' E 139°37'919.7
2017-Oct-13 16:30N 34°57' E 139°40'1019.6
2017-Oct-13 16:00N 35°06' E 139°44'816.8
2017-Oct-13 15:30N 35°14' E 139°46'612.8
2017-Oct-13 15:00N 35°20' E 139°42'815.9
2017-Oct-13 14:30N 35°27' E 139°47'814.9
2017-Oct-13 14:00N 35°34' E 139°48'  
Track history (hours):
 
Tides and Currents Weather Stations Pressure Air Temp Water Temp Dewpoint Dewpoint Depression Visibility Wind Speed Wind Dir Waves Ship Positions

Tachibana Maru

Last reported at 2017-Oct-23 05:09 UTC. Time now 2017-Oct-23 06:08 UTC.
Position N 35°39' E 139°46'.

Length 118 m; draft 5.1 m.

Type: Passenger vessel. MMSI: 431005338.

Date/timePositionNaut miles runAvg speedWind from/ knotsBaromVisibWave heightAir tempDewpointWater temp
2017-Oct-23 05:09N 35°39' E 139°46'1 4.2
2017-Oct-23 04:59N 35°38' E 139°46'510.4
2017-Oct-23 04:29N 35°34' E 139°49'3 6.1
2017-Oct-23 03:58N 35°31' E 139°51'0 0.0
2017-Oct-22 23:35N 35°31' E 139°51'0 0.0
2017-Oct-22 23:28N 35°31' E 139°51'0 0.1
2017-Oct-22 22:52N 35°31' E 139°51'0 0.1
2017-Oct-22 22:29N 35°31' E 139°51'0 0.0
2017-Oct-22 21:14N 35°31' E 139°51'0 0.1
2017-Oct-22 20:44N 35°31' E 139°51'0 0.2
2017-Oct-22 20:24N 35°31' E 139°51'0 0.1
2017-Oct-22 19:58N 35°31' E 139°51'0 0.0
2017-Oct-22 19:29N 35°31' E 139°51'0 0.0
2017-Oct-22 18:58N 35°31' E 139°51'0 0.0
2017-Oct-22 18:30N 35°31' E 139°51'0 0.0
2017-Oct-22 17:58N 35°31' E 139°51'0 0.0
2017-Oct-22 17:28N 35°31' E 139°51'0 0.0
2017-Oct-22 16:57N 35°31' E 139°51'0 0.0
2017-Oct-22 16:30N 35°31' E 139°51'0 0.1
2017-Oct-22 14:40N 35°31' E 139°51'0 0.0
2017-Oct-22 14:26N 35°31' E 139°51'0 0.0
2017-Oct-22 14:00N 35°31' E 139°51'0 0.0
2017-Oct-22 13:29N 35°31' E 139°51'0 0.0
2017-Oct-22 12:56N 35°31' E 139°51'0 0.0
2017-Oct-22 12:30N 35°31' E 139°51'0 0.0
2017-Oct-22 04:10N 35°31' E 139°51'0 0.0
2017-Oct-22 04:00N 35°31' E 139°51'0 0.0
2017-Oct-22 03:31N 35°31' E 139°51'0 0.4
2017-Oct-22 03:00N 35°31' E 139°51'2 5.0
2017-Oct-22 02:31N 35°34' E 139°50'611.9
2017-Oct-22 01:58N 35°39' E 139°46'0 0.0
2017-Oct-21 10:47N 35°39' E 139°46'2 6.9
2017-Oct-21 10:30N 35°37' E 139°46'816.2
2017-Oct-21 09:59N 35°31' E 139°52'816.7
2017-Oct-21 09:30N 35°24' E 139°46'612.4
2017-Oct-21 09:00N 35°18' E 139°44'612.6
2017-Oct-21 08:31N 35°12' E 139°47'1019.4
2017-Oct-21 08:01N 35°03' E 139°45'1018.6
2017-Oct-21 07:27N 34°53' E 139°39'1 0.0
2017-Oct-20 16:38N 34°53' E 139°40'320.5
2017-Oct-20 16:30N 34°56' E 139°41'1019.7
2017-Oct-20 16:01N 35°05' E 139°43'918.2
2017-Oct-20 15:30N 35°14' E 139°46'612.2
2017-Oct-20 15:00N 35°19' E 139°43'815.2
2017-Oct-20 14:30N 35°26' E 139°46'13 0.6
2017-Oct-19 16:53N 35°39' E 139°46'0 0.0
2017-Oct-19 16:29N 35°39' E 139°46'0 0.0
2017-Oct-19 15:56N 35°39' E 139°46'0 0.0
2017-Oct-19 15:29N 35°39' E 139°46'0 0.0
2017-Oct-19 14:50N 35°39' E 139°46'0 0.0
2017-Oct-19 14:29N 35°39' E 139°46'0 0.0
2017-Oct-19 12:05N 35°39' E 139°46'0 0.1
2017-Oct-19 11:59N 35°39' E 139°46'0 0.0
2017-Oct-19 11:29N 35°39' E 139°46'0 0.0
2017-Oct-19 10:47N 35°39' E 139°46'0 0.0
2017-Oct-19 04:59N 35°39' E 139°46'0 0.0
2017-Oct-19 04:00N 35°39' E 139°46'4 9.0
2017-Oct-19 03:30N 35°35' E 139°48'713.7
2017-Oct-19 03:00N 35°29' E 139°52'815.4
2017-Oct-19 02:30N 35°23' E 139°46'612.0
2017-Oct-19 02:01N 35°17' E 139°46'713.1
2017-Oct-19 01:30N 35°10' E 139°47'917.0
2017-Oct-19 01:00N 35°02' E 139°44'816.1
2017-Oct-19 00:30N 34°55' E 139°40'3 0.4
2017-Oct-18 16:54N 34°52' E 139°38'818.8
2017-Oct-18 16:30N 34°60' E 139°40'918.8
2017-Oct-18 16:00N 35°08' E 139°44'815.1
2017-Oct-18 15:30N 35°16' E 139°46'612.6
2017-Oct-18 15:01N 35°21' E 139°42'1414.2
2017-Oct-18 14:00N 35°35' E 139°48'5 1.8
2017-Oct-18 11:28N 35°39' E 139°46'612.1
2017-Oct-18 11:00N 35°34' E 139°49'714.7
2017-Oct-18 10:30N 35°27' E 139°49'713.9
2017-Oct-18 10:00N 35°21' E 139°45'611.7
2017-Oct-18 09:30N 35°15' E 139°47'816.5
2017-Oct-18 09:00N 35°07' E 139°46'1019.1
2017-Oct-18 08:30N 34°58' E 139°42'9 0.6
2017-Oct-17 16:56N 34°50' E 139°38'818.5
2017-Oct-17 16:30N 34°58' E 139°40'1018.7
2017-Oct-17 16:00N 35°07' E 139°43'816.5
2017-Oct-17 15:30N 35°15' E 139°46'611.8
2017-Oct-17 15:00N 35°20' E 139°43'714.9
2017-Oct-17 14:30N 35°27' E 139°45'815.4
2017-Oct-17 14:00N 35°34' E 139°49'6 0.6
2017-Oct-17 04:11N 35°39' E 139°46'1 4.0
2017-Oct-17 04:00N 35°38' E 139°46'611.4
2017-Oct-17 03:30N 35°34' E 139°50'612.5
2017-Oct-17 03:01N 35°28' E 139°50'713.7
2017-Oct-17 02:30N 35°22' E 139°45'611.8
2017-Oct-17 02:00N 35°16' E 139°46'714.7
2017-Oct-17 01:31N 35°09' E 139°47'918.2
2017-Oct-17 01:01N 35°00' E 139°42'816.2
2017-Oct-17 00:30N 34°53' E 139°40'1 0.1
2017-Oct-16 16:59N 34°52' E 139°40'816.8
2017-Oct-16 16:30N 35°00' E 139°42'816.4
2017-Oct-16 16:00N 35°08' E 139°44'715.0
2017-Oct-16 15:31N 35°15' E 139°46'713.3
2017-Oct-16 15:00N 35°21' E 139°42'1414.2
2017-Oct-16 14:00N 35°34' E 139°48'510.1
2017-Oct-16 13:30N 35°39' E 139°46'0 0.0
2017-Oct-16 13:00N 35°39' E 139°46'0 0.0
2017-Oct-16 12:30N 35°39' E 139°46'0 0.0
2017-Oct-16 11:33N 35°39' E 139°46'0 0.9
2017-Oct-16 11:30N 35°39' E 139°46'611.4
2017-Oct-16 11:00N 35°34' E 139°49'714.6
2017-Oct-16 10:30N 35°27' E 139°49'713.7
2017-Oct-16 10:00N 35°21' E 139°45'611.5
2017-Oct-16 09:30N 35°16' E 139°47'815.2
2017-Oct-16 09:00N 35°08' E 139°46'918.1
2017-Oct-16 08:30N 34°60' E 139°41'816.5
2017-Oct-16 08:00N 34°52' E 139°37'1 0.1
2017-Oct-15 16:42N 34°52' E 139°39'419.8
2017-Oct-15 16:30N 34°56' E 139°40'918.9
2017-Oct-15 16:00N 35°05' E 139°43'918.3
2017-Oct-15 15:30N 35°14' E 139°46'713.0
2017-Oct-15 15:00N 35°19' E 139°43'1515.5
2017-Oct-15 14:00N 35°34' E 139°49'6 2.1
2017-Oct-15 11:17N 35°39' E 139°46'2 8.9
2017-Oct-15 11:00N 35°37' E 139°46'917.3
2017-Oct-15 10:31N 35°30' E 139°52'816.7
2017-Oct-15 10:01N 35°23' E 139°46'612.2
2017-Oct-15 09:30N 35°17' E 139°46'713.5
2017-Oct-15 09:01N 35°10' E 139°46'1019.3
2017-Oct-15 08:30N 35°01' E 139°44'11 0.7
2017-Oct-14 16:48N 34°50' E 139°38'618.8
2017-Oct-14 16:30N 34°56' E 139°40'918.7
2017-Oct-14 16:00N 35°05' E 139°44'918.1
2017-Oct-14 15:30N 35°13' E 139°46'612.8
2017-Oct-14 15:00N 35°19' E 139°43'815.5
2017-Oct-14 14:31N 35°26' E 139°46'815.5
2017-Oct-14 14:00N 35°34' E 139°49'611.4
2017-Oct-14 13:28N 35°39' E 139°46'0 0.0
2017-Oct-14 12:50N 35°39' E 139°46'0 0.0
2017-Oct-14 12:29N 35°39' E 139°46'0 0.0
2017-Oct-14 11:24N 35°39' E 139°46'1 2.2
2017-Oct-14 10:59N 35°38' E 139°46'915.9
2017-Oct-14 10:24N 35°31' E 139°52'717.9
2017-Oct-14 10:01N 35°25' E 139°47'713.0
2017-Oct-14 09:30N 35°19' E 139°44'612.5
2017-Oct-14 09:00N 35°13' E 139°47'917.9
2017-Oct-14 08:30N 35°04' E 139°45'918.5
2017-Oct-14 08:00N 34°55' E 139°42'8 0.5
2017-Oct-13 16:56N 34°49' E 139°37'919.7
2017-Oct-13 16:30N 34°57' E 139°40'1019.6
2017-Oct-13 16:00N 35°06' E 139°44'816.8
2017-Oct-13 15:30N 35°14' E 139°46'612.8
2017-Oct-13 15:00N 35°20' E 139°42'815.9
2017-Oct-13 14:30N 35°27' E 139°47'814.9
2017-Oct-13 14:00N 35°34' E 139°48'  

Dump ship's entire track history